sensor_id;sensor_type;location;lat;lon;timestamp;temperature;humidity
582;DHT22;277;50.074;8.436;2023-08-06T00:00:54;16.40;99.90
582;DHT22;277;50.074;8.436;2023-08-06T00:03:22;16.40;99.90
582;DHT22;277;50.074;8.436;2023-08-06T00:05:50;16.40;99.90
582;DHT22;277;50.074;8.436;2023-08-06T00:08:18;16.40;99.90
582;DHT22;277;50.074;8.436;2023-08-06T00:10:48;16.40;99.90
582;DHT22;277;50.074;8.436;2023-08-06T00:13:16;16.40;99.90
582;DHT22;277;50.074;8.436;2023-08-06T00:15:44;16.40;99.90
582;DHT22;277;50.074;8.436;2023-08-06T00:18:11;16.40;99.90
582;DHT22;277;50.074;8.436;2023-08-06T00:20:39;16.40;99.90
582;DHT22;277;50.074;8.436;2023-08-06T00:23:07;16.40;99.90
582;DHT22;277;50.074;8.436;2023-08-06T00:25:36;16.50;99.90
582;DHT22;277;50.074;8.436;2023-08-06T00:28:05;16.50;99.90
582;DHT22;277;50.074;8.436;2023-08-06T00:30:33;16.50;99.90
582;DHT22;277;50.074;8.436;2023-08-06T00:33:00;16.50;99.90
582;DHT22;277;50.074;8.436;2023-08-06T00:35:29;16.40;99.90
582;DHT22;277;50.074;8.436;2023-08-06T00:37:57;16.50;99.90
582;DHT22;277;50.074;8.436;2023-08-06T00:40:25;16.50;99.90
582;DHT22;277;50.074;8.436;2023-08-06T00:42:54;16.50;99.90
582;DHT22;277;50.074;8.436;2023-08-06T00:45:24;16.50;99.90
582;DHT22;277;50.074;8.436;2023-08-06T00:47:52;16.50;99.90
582;DHT22;277;50.074;8.436;2023-08-06T00:50:20;16.50;99.90
582;DHT22;277;50.074;8.436;2023-08-06T00:52:49;16.50;99.90
582;DHT22;277;50.074;8.436;2023-08-06T00:55:17;16.50;99.90
582;DHT22;277;50.074;8.436;2023-08-06T00:57:44;16.50;99.90
582;DHT22;277;50.074;8.436;2023-08-06T01:00:12;16.50;99.90
582;DHT22;277;50.074;8.436;2023-08-06T01:02:41;16.50;99.90
582;DHT22;277;50.074;8.436;2023-08-06T01:05:09;16.50;99.90
582;DHT22;277;50.074;8.436;2023-08-06T01:07:41;16.50;99.90
582;DHT22;277;50.074;8.436;2023-08-06T01:10:17;16.50;99.90
582;DHT22;277;50.074;8.436;2023-08-06T01:12:56;16.40;99.90
582;DHT22;277;50.074;8.436;2023-08-06T01:15:30;16.40;99.90
582;DHT22;277;50.074;8.436;2023-08-06T01:18:01;16.40;99.90
582;DHT22;277;50.074;8.436;2023-08-06T01:20:31;16.50;99.90
582;DHT22;277;50.074;8.436;2023-08-06T01:22:59;16.50;99.90
582;DHT22;277;50.074;8.436;2023-08-06T01:25:32;16.40;99.90
582;DHT22;277;50.074;8.436;2023-08-06T01:28:06;16.40;99.90
582;DHT22;277;50.074;8.436;2023-08-06T01:30:39;16.40;99.90
582;DHT22;277;50.074;8.436;2023-08-06T01:33:12;16.40;99.90
582;DHT22;277;50.074;8.436;2023-08-06T01:35:44;16.50;99.90
582;DHT22;277;50.074;8.436;2023-08-06T01:38:13;16.50;99.90
582;DHT22;277;50.074;8.436;2023-08-06T01:40:41;16.50;99.90
582;DHT22;277;50.074;8.436;2023-08-06T01:43:09;16.50;99.90
582;DHT22;277;50.074;8.436;2023-08-06T01:45:37;16.50;99.90
582;DHT22;277;50.074;8.436;2023-08-06T01:48:05;16.50;99.90
582;DHT22;277;50.074;8.436;2023-08-06T01:50:33;16.40;99.90
582;DHT22;277;50.074;8.436;2023-08-06T01:53:02;16.40;99.90
582;DHT22;277;50.074;8.436;2023-08-06T01:55:30;16.40;99.90
582;DHT22;277;50.074;8.436;2023-08-06T01:57:57;16.40;99.90
582;DHT22;277;50.074;8.436;2023-08-06T02:00:25;16.40;99.90
582;DHT22;277;50.074;8.436;2023-08-06T02:02:54;16.30;99.90
582;DHT22;277;50.074;8.436;2023-08-06T02:05:22;16.30;99.90
582;DHT22;277;50.074;8.436;2023-08-06T02:07:49;16.20;99.90
582;DHT22;277;50.074;8.436;2023-08-06T02:10:19;16.20;99.90
582;DHT22;277;50.074;8.436;2023-08-06T02:12:46;16.20;99.90
582;DHT22;277;50.074;8.436;2023-08-06T02:15:14;16.20;99.90
582;DHT22;277;50.074;8.436;2023-08-06T02:17:42;16.20;99.90
582;DHT22;277;50.074;8.436;2023-08-06T02:20:10;16.10;99.90
582;DHT22;277;50.074;8.436;2023-08-06T02:22:38;16.10;99.90
582;DHT22;277;50.074;8.436;2023-08-06T02:25:06;16.00;99.90
582;DHT22;277;50.074;8.436;2023-08-06T02:27:35;16.00;99.90
582;DHT22;277;50.074;8.436;2023-08-06T02:30:04;16.00;99.90
582;DHT22;277;50.074;8.436;2023-08-06T02:32:32;16.00;99.90
582;DHT22;277;50.074;8.436;2023-08-06T02:35:02;16.00;99.90
582;DHT22;277;50.074;8.436;2023-08-06T02:37:30;16.00;99.90
582;DHT22;277;50.074;8.436;2023-08-06T02:40:00;16.00;99.90
582;DHT22;277;50.074;8.436;2023-08-06T02:42:28;16.10;99.90
582;DHT22;277;50.074;8.436;2023-08-06T02:44:57;16.00;99.90
582;DHT22;277;50.074;8.436;2023-08-06T02:47:25;16.00;99.90
582;DHT22;277;50.074;8.436;2023-08-06T02:49:53;16.00;99.90
582;DHT22;277;50.074;8.436;2023-08-06T02:52:21;16.00;99.90
582;DHT22;277;50.074;8.436;2023-08-06T02:54:48;16.00;99.90
582;DHT22;277;50.074;8.436;2023-08-06T02:57:16;16.00;99.90
582;DHT22;277;50.074;8.436;2023-08-06T02:59:44;16.00;99.90
582;DHT22;277;50.074;8.436;2023-08-06T03:02:13;16.00;99.90
582;DHT22;277;50.074;8.436;2023-08-06T03:04:41;16.00;99.90
582;DHT22;277;50.074;8.436;2023-08-06T03:07:09;16.00;99.90
582;DHT22;277;50.074;8.436;2023-08-06T03:09:37;16.00;99.90
582;DHT22;277;50.074;8.436;2023-08-06T03:12:05;16.00;99.90
582;DHT22;277;50.074;8.436;2023-08-06T03:14:33;16.00;99.90
582;DHT22;277;50.074;8.436;2023-08-06T03:17:00;16.00;99.90
582;DHT22;277;50.074;8.436;2023-08-06T03:19:30;16.00;99.90
582;DHT22;277;50.074;8.436;2023-08-06T03:21:57;16.00;99.90
582;DHT22;277;50.074;8.436;2023-08-06T03:24:25;16.00;99.90
582;DHT22;277;50.074;8.436;2023-08-06T03:26:53;15.90;99.90
582;DHT22;277;50.074;8.436;2023-08-06T03:29:21;15.90;99.90
582;DHT22;277;50.074;8.436;2023-08-06T03:31:49;15.90;99.90
582;DHT22;277;50.074;8.436;2023-08-06T03:34:17;15.90;99.90
582;DHT22;277;50.074;8.436;2023-08-06T03:36:46;15.90;99.90
582;DHT22;277;50.074;8.436;2023-08-06T03:39:14;15.80;99.90
582;DHT22;277;50.074;8.436;2023-08-06T03:41:41;15.80;99.90
582;DHT22;277;50.074;8.436;2023-08-06T03:44:09;15.80;99.90
582;DHT22;277;50.074;8.436;2023-08-06T03:46:37;15.80;99.90
582;DHT22;277;50.074;8.436;2023-08-06T03:49:05;15.80;99.90
582;DHT22;277;50.074;8.436;2023-08-06T03:51:33;15.80;99.90
582;DHT22;277;50.074;8.436;2023-08-06T03:54:02;15.80;99.90
582;DHT22;277;50.074;8.436;2023-08-06T03:56:30;15.80;99.90
582;DHT22;277;50.074;8.436;2023-08-06T03:58:57;15.80;99.90
582;DHT22;277;50.074;8.436;2023-08-06T04:01:25;15.90;99.90
582;DHT22;277;50.074;8.436;2023-08-06T04:03:53;15.80;99.90
582;DHT22;277;50.074;8.436;2023-08-06T04:06:21;15.80;99.90
582;DHT22;277;50.074;8.436;2023-08-06T04:08:48;15.80;99.90
582;DHT22;277;50.074;8.436;2023-08-06T04:11:18;15.70;99.90
582;DHT22;277;50.074;8.436;2023-08-06T04:13:45;15.70;99.90
582;DHT22;277;50.074;8.436;2023-08-06T04:16:13;15.70;99.90
582;DHT22;277;50.074;8.436;2023-08-06T04:18:41;15.70;99.90
582;DHT22;277;50.074;8.436;2023-08-06T04:21:09;15.60;99.90
582;DHT22;277;50.074;8.436;2023-08-06T04:23:37;15.60;99.90
582;DHT22;277;50.074;8.436;2023-08-06T04:26:05;15.60;99.90
582;DHT22;277;50.074;8.436;2023-08-06T04:28:34;15.60;99.90
582;DHT22;277;50.074;8.436;2023-08-06T04:31:02;15.60;99.90
582;DHT22;277;50.074;8.436;2023-08-06T04:33:30;15.60;99.90
582;DHT22;277;50.074;8.436;2023-08-06T04:35:57;15.60;99.90
582;DHT22;277;50.074;8.436;2023-08-06T04:38:26;15.60;99.90
582;DHT22;277;50.074;8.436;2023-08-06T04:40:53;15.60;99.90
582;DHT22;277;50.074;8.436;2023-08-06T04:43:21;15.60;99.90
582;DHT22;277;50.074;8.436;2023-08-06T04:45:52;15.60;99.90
582;DHT22;277;50.074;8.436;2023-08-06T04:48:21;15.60;99.90
582;DHT22;277;50.074;8.436;2023-08-06T04:50:49;15.50;99.90
582;DHT22;277;50.074;8.436;2023-08-06T04:53:17;15.50;99.90
582;DHT22;277;50.074;8.436;2023-08-06T04:55:45;15.40;99.90
582;DHT22;277;50.074;8.436;2023-08-06T04:58:13;15.30;99.90
582;DHT22;277;50.074;8.436;2023-08-06T05:00:41;15.20;99.90
582;DHT22;277;50.074;8.436;2023-08-06T05:03:10;15.20;99.90
582;DHT22;277;50.074;8.436;2023-08-06T05:05:39;15.20;99.90
582;DHT22;277;50.074;8.436;2023-08-06T05:08:07;15.20;99.90
582;DHT22;277;50.074;8.436;2023-08-06T05:10:35;15.10;99.90
582;DHT22;277;50.074;8.436;2023-08-06T05:13:02;15.10;99.90
582;DHT22;277;50.074;8.436;2023-08-06T05:15:30;15.10;99.90
582;DHT22;277;50.074;8.436;2023-08-06T05:17:58;15.10;99.90
582;DHT22;277;50.074;8.436;2023-08-06T05:20:27;15.10;99.90
582;DHT22;277;50.074;8.436;2023-08-06T05:22:55;15.00;99.90
582;DHT22;277;50.074;8.436;2023-08-06T05:25:23;15.00;99.90
582;DHT22;277;50.074;8.436;2023-08-06T05:27:50;15.00;99.90
582;DHT22;277;50.074;8.436;2023-08-06T05:30:19;15.00;99.90
582;DHT22;277;50.074;8.436;2023-08-06T05:32:47;15.00;99.90
582;DHT22;277;50.074;8.436;2023-08-06T05:35:15;15.10;99.90
582;DHT22;277;50.074;8.436;2023-08-06T05:37:45;15.00;99.90
582;DHT22;277;50.074;8.436;2023-08-06T05:40:13;15.10;99.90
582;DHT22;277;50.074;8.436;2023-08-06T05:42:41;15.00;99.90
582;DHT22;277;50.074;8.436;2023-08-06T05:45:09;15.00;99.90
582;DHT22;277;50.074;8.436;2023-08-06T05:47:37;15.00;99.90
582;DHT22;277;50.074;8.436;2023-08-06T05:50:05;15.10;99.90
582;DHT22;277;50.074;8.436;2023-08-06T05:52:33;15.10;99.90
582;DHT22;277;50.074;8.436;2023-08-06T05:55:03;15.00;99.90
582;DHT22;277;50.074;8.436;2023-08-06T05:57:30;15.00;99.90
582;DHT22;277;50.074;8.436;2023-08-06T05:59:58;15.00;99.90
582;DHT22;277;50.074;8.436;2023-08-06T06:02:26;15.10;99.90
582;DHT22;277;50.074;8.436;2023-08-06T06:04:54;15.10;99.90
582;DHT22;277;50.074;8.436;2023-08-06T06:07:21;15.10;99.90
582;DHT22;277;50.074;8.436;2023-08-06T06:09:49;15.20;99.90
582;DHT22;277;50.074;8.436;2023-08-06T06:12:18;15.10;99.90
582;DHT22;277;50.074;8.436;2023-08-06T06:14:48;15.10;99.90
582;DHT22;277;50.074;8.436;2023-08-06T06:17:16;15.10;99.90
582;DHT22;277;50.074;8.436;2023-08-06T06:19:44;15.20;99.90
582;DHT22;277;50.074;8.436;2023-08-06T06:22:12;15.20;99.90
582;DHT22;277;50.074;8.436;2023-08-06T06:24:40;15.20;99.90
582;DHT22;277;50.074;8.436;2023-08-06T06:27:07;15.20;99.90
582;DHT22;277;50.074;8.436;2023-08-06T06:29:37;15.20;99.90
582;DHT22;277;50.074;8.436;2023-08-06T06:32:04;15.10;99.90
582;DHT22;277;50.074;8.436;2023-08-06T06:34:32;15.00;99.90
582;DHT22;277;50.074;8.436;2023-08-06T06:37:00;15.00;99.90
582;DHT22;277;50.074;8.436;2023-08-06T06:39:28;15.00;99.90
582;DHT22;277;50.074;8.436;2023-08-06T06:41:56;15.00;99.90
582;DHT22;277;50.074;8.436;2023-08-06T06:44:23;15.00;99.90
582;DHT22;277;50.074;8.436;2023-08-06T06:46:52;15.00;99.90
582;DHT22;277;50.074;8.436;2023-08-06T06:49:21;14.90;99.90
582;DHT22;277;50.074;8.436;2023-08-06T06:51:48;14.90;99.90
582;DHT22;277;50.074;8.436;2023-08-06T06:54:17;14.90;99.90
582;DHT22;277;50.074;8.436;2023-08-06T06:56:44;14.90;99.90
582;DHT22;277;50.074;8.436;2023-08-06T06:59:12;14.80;99.90
582;DHT22;277;50.074;8.436;2023-08-06T07:01:40;14.80;99.90
582;DHT22;277;50.074;8.436;2023-08-06T07:04:09;14.90;99.90
582;DHT22;277;50.074;8.436;2023-08-06T07:06:37;15.00;99.90
582;DHT22;277;50.074;8.436;2023-08-06T07:09:05;14.90;99.90
582;DHT22;277;50.074;8.436;2023-08-06T07:11:32;14.90;99.90
582;DHT22;277;50.074;8.436;2023-08-06T07:14:00;14.90;99.90
582;DHT22;277;50.074;8.436;2023-08-06T07:16:28;15.00;99.90
582;DHT22;277;50.074;8.436;2023-08-06T07:18:56;15.00;99.90
582;DHT22;277;50.074;8.436;2023-08-06T07:21:25;15.00;99.90
582;DHT22;277;50.074;8.436;2023-08-06T07:23:53;15.00;99.90
582;DHT22;277;50.074;8.436;2023-08-06T07:26:21;15.00;99.90
582;DHT22;277;50.074;8.436;2023-08-06T07:28:49;15.00;99.90
582;DHT22;277;50.074;8.436;2023-08-06T07:31:16;15.00;99.90
582;DHT22;277;50.074;8.436;2023-08-06T07:33:44;15.10;99.90
582;DHT22;277;50.074;8.436;2023-08-06T07:36:12;15.10;99.90
582;DHT22;277;50.074;8.436;2023-08-06T07:38:42;15.10;99.90
582;DHT22;277;50.074;8.436;2023-08-06T07:41:10;15.20;99.90
582;DHT22;277;50.074;8.436;2023-08-06T07:43:37;15.30;99.90
582;DHT22;277;50.074;8.436;2023-08-06T07:46:05;15.30;99.90
582;DHT22;277;50.074;8.436;2023-08-06T07:48:33;15.40;99.90
582;DHT22;277;50.074;8.436;2023-08-06T07:51:01;15.30;99.90
582;DHT22;277;50.074;8.436;2023-08-06T07:53:28;15.40;99.90
582;DHT22;277;50.074;8.436;2023-08-06T07:55:58;15.50;99.90
582;DHT22;277;50.074;8.436;2023-08-06T07:58:28;15.50;99.90
582;DHT22;277;50.074;8.436;2023-08-06T08:00:56;15.50;99.90
582;DHT22;277;50.074;8.436;2023-08-06T08:03:24;15.50;99.90
582;DHT22;277;50.074;8.436;2023-08-06T08:05:54;15.60;99.90
582;DHT22;277;50.074;8.436;2023-08-06T08:08:24;15.60;99.90
582;DHT22;277;50.074;8.436;2023-08-06T08:10:51;15.70;99.90
582;DHT22;277;50.074;8.436;2023-08-06T08:13:20;15.90;99.90
582;DHT22;277;50.074;8.436;2023-08-06T08:15:48;16.00;99.90
582;DHT22;277;50.074;8.436;2023-08-06T08:18:16;16.00;99.90
582;DHT22;277;50.074;8.436;2023-08-06T08:20:44;16.10;99.90
582;DHT22;277;50.074;8.436;2023-08-06T08:23:12;16.10;99.90
582;DHT22;277;50.074;8.436;2023-08-06T08:25:39;16.20;99.90
582;DHT22;277;50.074;8.436;2023-08-06T08:28:07;16.20;99.90
582;DHT22;277;50.074;8.436;2023-08-06T08:30:36;16.30;99.90
582;DHT22;277;50.074;8.436;2023-08-06T08:33:04;16.30;99.90
582;DHT22;277;50.074;8.436;2023-08-06T08:35:32;16.20;99.90
582;DHT22;277;50.074;8.436;2023-08-06T08:38:00;16.30;99.90
582;DHT22;277;50.074;8.436;2023-08-06T08:40:29;16.30;99.90
582;DHT22;277;50.074;8.436;2023-08-06T08:42:59;16.40;99.90
582;DHT22;277;50.074;8.436;2023-08-06T08:45:28;16.50;99.90
582;DHT22;277;50.074;8.436;2023-08-06T08:47:58;16.70;99.90
582;DHT22;277;50.074;8.436;2023-08-06T08:50:26;16.90;99.90
582;DHT22;277;50.074;8.436;2023-08-06T08:52:54;16.90;99.90
582;DHT22;277;50.074;8.436;2023-08-06T08:55:22;16.90;99.90
582;DHT22;277;50.074;8.436;2023-08-06T08:57:50;16.90;99.90
582;DHT22;277;50.074;8.436;2023-08-06T09:00:18;16.80;99.90
582;DHT22;277;50.074;8.436;2023-08-06T09:02:46;16.80;99.90
582;DHT22;277;50.074;8.436;2023-08-06T09:05:15;16.80;99.90
582;DHT22;277;50.074;8.436;2023-08-06T09:07:46;16.90;99.90
582;DHT22;277;50.074;8.436;2023-08-06T09:10:16;17.10;99.90
582;DHT22;277;50.074;8.436;2023-08-06T09:12:44;17.30;99.90
582;DHT22;277;50.074;8.436;2023-08-06T09:15:12;17.70;99.90
582;DHT22;277;50.074;8.436;2023-08-06T09:17:40;18.10;99.90
582;DHT22;277;50.074;8.436;2023-08-06T09:20:09;18.30;99.90
582;DHT22;277;50.074;8.436;2023-08-06T09:22:39;18.50;99.90
582;DHT22;277;50.074;8.436;2023-08-06T09:25:07;18.50;99.90
582;DHT22;277;50.074;8.436;2023-08-06T09:27:37;18.50;99.90
582;DHT22;277;50.074;8.436;2023-08-06T09:30:05;18.50;99.90
582;DHT22;277;50.074;8.436;2023-08-06T09:32:44;18.50;99.90
582;DHT22;277;50.074;8.436;2023-08-06T09:35:14;18.50;99.90
582;DHT22;277;50.074;8.436;2023-08-06T09:37:44;18.70;99.90
582;DHT22;277;50.074;8.436;2023-08-06T09:40:24;18.70;99.90
582;DHT22;277;50.074;8.436;2023-08-06T09:42:53;18.80;99.90
582;DHT22;277;50.074;8.436;2023-08-06T09:45:21;18.90;99.90
582;DHT22;277;50.074;8.436;2023-08-06T09:47:49;18.80;99.90
582;DHT22;277;50.074;8.436;2023-08-06T09:50:17;18.80;99.90
582;DHT22;277;50.074;8.436;2023-08-06T09:52:47;18.90;99.90
582;DHT22;277;50.074;8.436;2023-08-06T09:55:15;18.80;99.90
582;DHT22;277;50.074;8.436;2023-08-06T09:57:43;18.70;99.90
582;DHT22;277;50.074;8.436;2023-08-06T10:00:11;18.50;99.90
582;DHT22;277;50.074;8.436;2023-08-06T10:02:40;18.40;99.90
582;DHT22;277;50.074;8.436;2023-08-06T10:05:08;18.40;99.90
582;DHT22;277;50.074;8.436;2023-08-06T10:07:36;18.40;99.90
582;DHT22;277;50.074;8.436;2023-08-06T10:10:07;18.30;99.90
582;DHT22;277;50.074;8.436;2023-08-06T10:12:35;18.20;99.90
582;DHT22;277;50.074;8.436;2023-08-06T10:15:06;18.20;99.90
582;DHT22;277;50.074;8.436;2023-08-06T10:17:36;18.50;99.90
582;DHT22;277;50.074;8.436;2023-08-06T10:20:17;18.60;99.90
582;DHT22;277;50.074;8.436;2023-08-06T10:22:45;18.50;99.90
582;DHT22;277;50.074;8.436;2023-08-06T10:25:17;18.50;99.90
582;DHT22;277;50.074;8.436;2023-08-06T10:27:53;18.40;99.90
582;DHT22;277;50.074;8.436;2023-08-06T10:30:22;18.30;99.90
582;DHT22;277;50.074;8.436;2023-08-06T10:32:50;18.50;99.90
582;DHT22;277;50.074;8.436;2023-08-06T10:35:27;18.50;99.90
582;DHT22;277;50.074;8.436;2023-08-06T10:37:59;18.70;99.90
582;DHT22;277;50.074;8.436;2023-08-06T10:40:28;18.90;99.90
582;DHT22;277;50.074;8.436;2023-08-06T10:42:58;19.20;99.90
582;DHT22;277;50.074;8.436;2023-08-06T10:45:26;19.60;99.90
582;DHT22;277;50.074;8.436;2023-08-06T10:47:55;20.00;99.90
582;DHT22;277;50.074;8.436;2023-08-06T10:50:24;20.10;99.90
582;DHT22;277;50.074;8.436;2023-08-06T10:52:52;19.80;99.90
582;DHT22;277;50.074;8.436;2023-08-06T10:55:23;19.60;99.90
582;DHT22;277;50.074;8.436;2023-08-06T10:57:53;19.30;99.90
582;DHT22;277;50.074;8.436;2023-08-06T11:00:21;19.10;99.90
582;DHT22;277;50.074;8.436;2023-08-06T11:02:50;19.10;99.90
582;DHT22;277;50.074;8.436;2023-08-06T11:05:18;19.30;99.90
582;DHT22;277;50.074;8.436;2023-08-06T11:07:46;19.40;99.90
582;DHT22;277;50.074;8.436;2023-08-06T11:10:16;19.30;99.90
582;DHT22;277;50.074;8.436;2023-08-06T11:12:44;19.00;99.90
582;DHT22;277;50.074;8.436;2023-08-06T11:15:13;18.90;99.90
582;DHT22;277;50.074;8.436;2023-08-06T11:17:40;18.80;99.90
582;DHT22;277;50.074;8.436;2023-08-06T11:20:09;18.50;99.90
582;DHT22;277;50.074;8.436;2023-08-06T11:22:38;18.50;99.90
582;DHT22;277;50.074;8.436;2023-08-06T11:25:06;18.50;99.90
582;DHT22;277;50.074;8.436;2023-08-06T11:27:34;18.50;99.90
582;DHT22;277;50.074;8.436;2023-08-06T11:30:02;18.50;99.90
582;DHT22;277;50.074;8.436;2023-08-06T11:32:31;18.40;99.90
582;DHT22;277;50.074;8.436;2023-08-06T11:35:08;18.20;99.90
582;DHT22;277;50.074;8.436;2023-08-06T11:37:36;18.00;99.90
582;DHT22;277;50.074;8.436;2023-08-06T11:40:06;17.80;99.90
582;DHT22;277;50.074;8.436;2023-08-06T11:42:35;17.70;99.90
582;DHT22;277;50.074;8.436;2023-08-06T11:45:03;17.50;99.90
582;DHT22;277;50.074;8.436;2023-08-06T11:47:33;17.40;99.90
582;DHT22;277;50.074;8.436;2023-08-06T11:50:00;17.30;99.90
582;DHT22;277;50.074;8.436;2023-08-06T11:52:31;17.20;99.90
582;DHT22;277;50.074;8.436;2023-08-06T11:54:59;17.10;99.90
582;DHT22;277;50.074;8.436;2023-08-06T11:57:28;17.30;99.90
582;DHT22;277;50.074;8.436;2023-08-06T12:00:01;17.40;99.90
582;DHT22;277;50.074;8.436;2023-08-06T12:02:31;17.50;99.90
582;DHT22;277;50.074;8.436;2023-08-06T12:05:04;17.70;99.90
582;DHT22;277;50.074;8.436;2023-08-06T12:07:37;17.80;99.90
582;DHT22;277;50.074;8.436;2023-08-06T12:10:06;17.60;99.90
582;DHT22;277;50.074;8.436;2023-08-06T12:12:34;17.50;99.90
582;DHT22;277;50.074;8.436;2023-08-06T12:15:01;17.30;99.90
582;DHT22;277;50.074;8.436;2023-08-06T12:17:29;17.20;99.90
582;DHT22;277;50.074;8.436;2023-08-06T12:19:57;17.10;99.90
582;DHT22;277;50.074;8.436;2023-08-06T12:22:26;17.00;99.90
582;DHT22;277;50.074;8.436;2023-08-06T12:24:54;17.10;99.90
582;DHT22;277;50.074;8.436;2023-08-06T12:27:22;17.00;99.90
582;DHT22;277;50.074;8.436;2023-08-06T12:29:50;16.90;99.90
582;DHT22;277;50.074;8.436;2023-08-06T12:32:17;16.90;99.90
582;DHT22;277;50.074;8.436;2023-08-06T12:34:45;16.90;99.90
582;DHT22;277;50.074;8.436;2023-08-06T12:37:19;16.90;99.90
582;DHT22;277;50.074;8.436;2023-08-06T12:39:48;16.80;99.90
582;DHT22;277;50.074;8.436;2023-08-06T12:42:16;16.90;99.90
582;DHT22;277;50.074;8.436;2023-08-06T12:44:43;16.80;99.90
582;DHT22;277;50.074;8.436;2023-08-06T12:47:11;16.70;99.90
582;DHT22;277;50.074;8.436;2023-08-06T12:49:39;16.70;99.90
582;DHT22;277;50.074;8.436;2023-08-06T12:52:07;16.60;99.90
582;DHT22;277;50.074;8.436;2023-08-06T12:54:35;16.60;99.90
582;DHT22;277;50.074;8.436;2023-08-06T12:57:05;16.60;99.90
582;DHT22;277;50.074;8.436;2023-08-06T12:59:33;16.60;99.90
582;DHT22;277;50.074;8.436;2023-08-06T13:02:03;16.60;99.90
582;DHT22;277;50.074;8.436;2023-08-06T13:04:31;16.50;99.90
582;DHT22;277;50.074;8.436;2023-08-06T13:07:01;16.50;99.90
582;DHT22;277;50.074;8.436;2023-08-06T13:09:28;16.30;99.90
582;DHT22;277;50.074;8.436;2023-08-06T13:11:58;16.10;99.90
582;DHT22;277;50.074;8.436;2023-08-06T13:14:28;16.00;99.90
582;DHT22;277;50.074;8.436;2023-08-06T13:16:56;15.90;99.90
582;DHT22;277;50.074;8.436;2023-08-06T13:19:23;15.80;99.90
582;DHT22;277;50.074;8.436;2023-08-06T13:21:57;15.80;99.90
582;DHT22;277;50.074;8.436;2023-08-06T13:24:25;15.90;99.90
582;DHT22;277;50.074;8.436;2023-08-06T13:26:53;15.90;99.90
582;DHT22;277;50.074;8.436;2023-08-06T13:29:22;16.00;99.90
582;DHT22;277;50.074;8.436;2023-08-06T13:31:51;16.00;99.90
582;DHT22;277;50.074;8.436;2023-08-06T13:34:18;16.10;99.90
582;DHT22;277;50.074;8.436;2023-08-06T13:36:46;16.00;99.90
582;DHT22;277;50.074;8.436;2023-08-06T13:39:14;16.10;99.90
582;DHT22;277;50.074;8.436;2023-08-06T13:41:43;16.10;99.90
582;DHT22;277;50.074;8.436;2023-08-06T13:44:11;16.20;99.90
582;DHT22;277;50.074;8.436;2023-08-06T13:46:41;16.20;99.90
582;DHT22;277;50.074;8.436;2023-08-06T13:49:10;16.20;99.90
582;DHT22;277;50.074;8.436;2023-08-06T13:51:38;16.10;99.90
582;DHT22;277;50.074;8.436;2023-08-06T13:54:05;16.10;99.90
582;DHT22;277;50.074;8.436;2023-08-06T13:56:34;16.10;99.90
582;DHT22;277;50.074;8.436;2023-08-06T13:59:03;16.20;99.90
582;DHT22;277;50.074;8.436;2023-08-06T14:01:40;16.10;99.90
582;DHT22;277;50.074;8.436;2023-08-06T14:04:19;16.20;99.90
582;DHT22;277;50.074;8.436;2023-08-06T14:06:48;16.20;99.90
582;DHT22;277;50.074;8.436;2023-08-06T14:09:15;16.30;99.90
582;DHT22;277;50.074;8.436;2023-08-06T14:11:45;16.20;99.90
582;DHT22;277;50.074;8.436;2023-08-06T14:14:13;16.30;99.90
582;DHT22;277;50.074;8.436;2023-08-06T14:16:41;16.40;99.90
582;DHT22;277;50.074;8.436;2023-08-06T14:19:08;16.40;99.90
582;DHT22;277;50.074;8.436;2023-08-06T14:21:37;16.50;99.90
582;DHT22;277;50.074;8.436;2023-08-06T14:24:08;16.50;99.90
582;DHT22;277;50.074;8.436;2023-08-06T14:26:36;16.60;99.90
582;DHT22;277;50.074;8.436;2023-08-06T14:29:04;16.70;99.90
582;DHT22;277;50.074;8.436;2023-08-06T14:31:31;16.80;99.90
582;DHT22;277;50.074;8.436;2023-08-06T14:33:59;16.80;99.90
582;DHT22;277;50.074;8.436;2023-08-06T14:36:27;16.70;99.90
582;DHT22;277;50.074;8.436;2023-08-06T14:38:56;16.70;99.90
582;DHT22;277;50.074;8.436;2023-08-06T14:41:26;16.60;99.90
582;DHT22;277;50.074;8.436;2023-08-06T14:43:54;16.70;99.90
582;DHT22;277;50.074;8.436;2023-08-06T14:46:22;16.70;99.90
582;DHT22;277;50.074;8.436;2023-08-06T14:48:49;16.80;99.90
582;DHT22;277;50.074;8.436;2023-08-06T14:51:17;16.80;99.90
582;DHT22;277;50.074;8.436;2023-08-06T14:53:47;16.80;99.90
582;DHT22;277;50.074;8.436;2023-08-06T14:56:16;16.70;99.90
582;DHT22;277;50.074;8.436;2023-08-06T14:58:43;16.60;99.90
582;DHT22;277;50.074;8.436;2023-08-06T15:01:11;16.50;99.90
582;DHT22;277;50.074;8.436;2023-08-06T15:03:39;16.50;99.90
582;DHT22;277;50.074;8.436;2023-08-06T15:06:07;16.40;99.90
582;DHT22;277;50.074;8.436;2023-08-06T15:08:35;16.30;99.90
582;DHT22;277;50.074;8.436;2023-08-06T15:11:03;16.10;99.90
582;DHT22;277;50.074;8.436;2023-08-06T15:13:32;16.00;99.90
582;DHT22;277;50.074;8.436;2023-08-06T15:16:00;16.00;99.90
582;DHT22;277;50.074;8.436;2023-08-06T15:18:28;15.90;99.90
582;DHT22;277;50.074;8.436;2023-08-06T15:20:56;15.90;99.90
582;DHT22;277;50.074;8.436;2023-08-06T15:23:24;15.90;99.90
582;DHT22;277;50.074;8.436;2023-08-06T15:25:51;15.90;99.90
582;DHT22;277;50.074;8.436;2023-08-06T15:28:19;15.90;99.90
582;DHT22;277;50.074;8.436;2023-08-06T15:30:49;15.90;99.90
582;DHT22;277;50.074;8.436;2023-08-06T15:33:17;15.90;99.90
582;DHT22;277;50.074;8.436;2023-08-06T15:35:45;16.00;99.90
582;DHT22;277;50.074;8.436;2023-08-06T15:38:13;15.90;99.90
582;DHT22;277;50.074;8.436;2023-08-06T15:40:41;16.00;99.90
582;DHT22;277;50.074;8.436;2023-08-06T15:43:12;16.10;99.90
582;DHT22;277;50.074;8.436;2023-08-06T15:45:40;16.10;99.90
582;DHT22;277;50.074;8.436;2023-08-06T15:48:09;16.10;99.90
582;DHT22;277;50.074;8.436;2023-08-06T15:50:36;16.10;99.90
582;DHT22;277;50.074;8.436;2023-08-06T15:53:05;16.20;99.90
582;DHT22;277;50.074;8.436;2023-08-06T15:55:32;16.10;99.90
582;DHT22;277;50.074;8.436;2023-08-06T15:58:04;16.20;99.90
582;DHT22;277;50.074;8.436;2023-08-06T16:00:32;16.10;99.90
582;DHT22;277;50.074;8.436;2023-08-06T16:03:01;16.00;99.90
582;DHT22;277;50.074;8.436;2023-08-06T16:05:30;16.00;99.90
582;DHT22;277;50.074;8.436;2023-08-06T16:07:58;16.00;99.90
582;DHT22;277;50.074;8.436;2023-08-06T16:10:26;16.00;99.90
582;DHT22;277;50.074;8.436;2023-08-06T16:12:54;15.90;99.90
582;DHT22;277;50.074;8.436;2023-08-06T16:15:22;15.90;99.90
582;DHT22;277;50.074;8.436;2023-08-06T16:17:50;15.90;99.90
582;DHT22;277;50.074;8.436;2023-08-06T16:20:18;15.90;99.90
582;DHT22;277;50.074;8.436;2023-08-06T16:22:47;15.90;99.90
582;DHT22;277;50.074;8.436;2023-08-06T16:25:15;15.90;99.90
582;DHT22;277;50.074;8.436;2023-08-06T16:27:42;15.80;99.90
582;DHT22;277;50.074;8.436;2023-08-06T16:30:10;15.70;99.90
582;DHT22;277;50.074;8.436;2023-08-06T16:32:38;15.70;99.90
582;DHT22;277;50.074;8.436;2023-08-06T16:35:06;15.60;99.90
582;DHT22;277;50.074;8.436;2023-08-06T16:37:36;15.60;99.90
582;DHT22;277;50.074;8.436;2023-08-06T16:40:07;15.50;99.90
582;DHT22;277;50.074;8.436;2023-08-06T16:42:36;15.40;99.90